70MI weather

Charlevoix Area Hospital Heliport
Charlevoix, Michigan, United States

Public forecast

Using degrees Fahrenheit for public forecast. Weather courtesy of forecast.io.

Closest aviation weather report (METAR) to Charlevoix Area Hospital Heliport

Closest report is Charlevoix Municipal Airport, 0.6 nm (1.0 km) S. Retrieved 2019/10/24 03:37 UTC (0 seconds ago):

KCVX 240337Z AUTO 23009KT 10SM SCT034 BKN041 OVC050 10/03 A2998 RMK AO2 T01000032

Closest aviation forecast (TAF) to Charlevoix Area Hospital Heliport

Closest forecast is Pellston Regional Airport of Emmet County Airport, 25.4 nm (47.0 km) NE. Retrieved 2019-10-24 00:22 UTC (3 hours ago):

TAF KPLN 232320Z 2400/2424 25009KT 6SM -SHRA BKN035 FM240400 27005KT P6SM VCSH OVC029 FM240900 30005KT P6SM BKN060 FM241300 29010G18KT P6SM VCSH BKN060 FM241800 28012G21KT P6SM BKN026